sensor_id;sensor_type;location;lat;lon;timestamp;pressure;altitude;pressure_sealevel;temperature;humidity
55317;BME280;41178;48.956;8.130;2023-02-02T00:01:48;100559.94;;;4.45;58.52
55317;BME280;41178;48.956;8.130;2023-02-02T00:06:51;100565.69;;;5.45;56.85
55317;BME280;41178;48.956;8.130;2023-02-02T00:11:53;100566.13;;;5.50;56.88
55317;BME280;41178;48.956;8.130;2023-02-02T00:16:56;100546.94;;;4.95;57.74
55317;BME280;41178;48.956;8.130;2023-02-02T00:21:58;100564.56;;;5.48;56.77
55317;BME280;41178;48.956;8.130;2023-02-02T00:27:00;100572.22;;;4.99;57.74
55317;BME280;41178;48.956;8.130;2023-02-02T00:32:02;100554.16;;;5.35;57.30
55317;BME280;41178;48.956;8.130;2023-02-02T00:37:03;100577.28;;;4.81;58.57
55317;BME280;41178;48.956;8.130;2023-02-02T00:42:07;100583.03;;;4.86;58.38
55317;BME280;41178;48.956;8.130;2023-02-02T00:47:09;100533.34;;;5.09;56.72
55317;BME280;41178;48.956;8.130;2023-02-02T00:52:11;100543.69;;;5.12;56.91
55317;BME280;41178;48.956;8.130;2023-02-02T00:57:13;100525.56;;;4.75;57.36
55317;BME280;41178;48.956;8.130;2023-02-02T01:02:15;100561.06;;;5.68;56.79
55317;BME280;41178;48.956;8.130;2023-02-02T01:07:17;100568.50;;;5.02;58.09
55317;BME280;41178;48.956;8.130;2023-02-02T01:12:19;100585.84;;;4.18;59.27
55317;BME280;41178;48.956;8.130;2023-02-02T01:17:20;100557.66;;;4.72;57.80
55317;BME280;41178;48.956;8.130;2023-02-02T01:22:22;100581.69;;;4.92;57.04
55317;BME280;41178;48.956;8.130;2023-02-02T01:27:24;100595.78;;;5.35;57.39
55317;BME280;41178;48.956;8.130;2023-02-02T01:32:26;100586.47;;;5.40;56.19
55317;BME280;41178;48.956;8.130;2023-02-02T01:37:28;100623.91;;;5.89;55.32
55317;BME280;41178;48.956;8.130;2023-02-02T01:42:30;100590.59;;;5.54;56.12
55317;BME280;41178;48.956;8.130;2023-02-02T01:47:38;100588.97;;;5.42;56.61
55317;BME280;41178;48.956;8.130;2023-02-02T01:52:45;100581.50;;;5.26;56.64
55317;BME280;41178;48.956;8.130;2023-02-02T01:58:04;100597.22;;;5.60;56.81
55317;BME280;41178;48.956;8.130;2023-02-02T02:03:12;100593.78;;;5.69;56.17
55317;BME280;41178;48.956;8.130;2023-02-02T02:08:22;100558.38;;;4.74;57.31
55317;BME280;41178;48.956;8.130;2023-02-02T02:13:26;100556.06;;;4.81;57.23
55317;BME280;41178;48.956;8.130;2023-02-02T02:19:22;100572.16;;;5.52;56.81
55317;BME280;41178;48.956;8.130;2023-02-02T02:40:41;100550.69;;;5.13;57.34
55317;BME280;41178;48.956;8.130;2023-02-02T02:45:46;100567.91;;;5.19;58.45
55317;BME280;41178;48.956;8.130;2023-02-02T02:50:48;100565.69;;;5.24;58.32
55317;BME280;41178;48.956;8.130;2023-02-02T02:55:55;100545.13;;;4.74;58.53
55317;BME280;41178;48.956;8.130;2023-02-02T03:01:06;100549.25;;;5.09;58.70
55317;BME280;41178;48.956;8.130;2023-02-02T03:06:54;100513.13;;;4.55;58.71
55317;BME280;41178;48.956;8.130;2023-02-02T03:11:57;100531.22;;;5.03;58.97
55317;BME280;41178;48.956;8.130;2023-02-02T03:17:00;100510.94;;;4.60;59.25
55317;BME280;41178;48.956;8.130;2023-02-02T03:22:02;100506.03;;;4.55;59.43
55317;BME280;41178;48.956;8.130;2023-02-02T03:27:03;100527.47;;;5.37;58.47
55317;BME280;41178;48.956;8.130;2023-02-02T03:32:05;100502.44;;;4.99;58.74
55317;BME280;41178;48.956;8.130;2023-02-02T03:37:07;100491.09;;;4.75;58.66
55317;BME280;41178;48.956;8.130;2023-02-02T03:42:09;100514.63;;;4.48;59.75
55317;BME280;41178;48.956;8.130;2023-02-02T03:47:11;100533.06;;;4.70;59.05
55317;BME280;41178;48.956;8.130;2023-02-02T03:52:12;100521.19;;;5.07;58.50
55317;BME280;41178;48.956;8.130;2023-02-02T03:57:14;100534.81;;;5.44;58.14
55317;BME280;41178;48.956;8.130;2023-02-02T04:02:16;100517.31;;;4.90;58.99
55317;BME280;41178;48.956;8.130;2023-02-02T04:07:18;100492.97;;;4.64;58.95
55317;BME280;41178;48.956;8.130;2023-02-02T04:12:20;100530.63;;;5.21;58.50
55317;BME280;41178;48.956;8.130;2023-02-02T04:17:22;100520.34;;;5.06;58.81
55317;BME280;41178;48.956;8.130;2023-02-02T04:22:24;100534.09;;;4.79;58.68
55317;BME280;41178;48.956;8.130;2023-02-02T04:27:28;100524.59;;;4.98;58.30
55317;BME280;41178;48.956;8.130;2023-02-02T04:32:33;100536.50;;;5.55;57.86
55317;BME280;41178;48.956;8.130;2023-02-02T04:37:34;100526.19;;;5.00;58.32
55317;BME280;41178;48.956;8.130;2023-02-02T04:42:36;100549.13;;;5.32;57.64
55317;BME280;41178;48.956;8.130;2023-02-02T04:47:38;100565.41;;;5.69;57.29
55317;BME280;41178;48.956;8.130;2023-02-02T04:52:40;100559.19;;;5.38;57.66
55317;BME280;41178;48.956;8.130;2023-02-02T04:57:41;100547.13;;;5.45;57.39
55317;BME280;41178;48.956;8.130;2023-02-02T05:05:25;100643.88;;;3.88;62.45
55317;BME280;41178;48.956;8.130;2023-02-02T05:10:27;100602.25;;;3.67;62.02
55317;BME280;41178;48.956;8.130;2023-02-02T05:15:29;100601.84;;;3.49;62.42
55317;BME280;41178;48.956;8.130;2023-02-02T05:20:31;100597.78;;;3.79;61.85
55317;BME280;41178;48.956;8.130;2023-02-02T05:25:32;100594.78;;;3.95;62.25
55317;BME280;41178;48.956;8.130;2023-02-02T05:30:37;100581.44;;;3.74;62.01
55317;BME280;41178;48.956;8.130;2023-02-02T05:35:39;100582.63;;;3.92;61.58
55317;BME280;41178;48.956;8.130;2023-02-02T05:40:40;100597.78;;;4.13;61.27
55317;BME280;41178;48.956;8.130;2023-02-02T05:45:42;100589.63;;;3.82;61.24
55317;BME280;41178;48.956;8.130;2023-02-02T05:50:48;100612.09;;;4.44;61.36
55317;BME280;41178;48.956;8.130;2023-02-02T05:55:57;100598.75;;;4.00;61.41
55317;BME280;41178;48.956;8.130;2023-02-02T06:00:58;100605.13;;;3.98;61.76
55317;BME280;41178;48.956;8.130;2023-02-02T06:06:01;100604.50;;;4.28;61.66
55317;BME280;41178;48.956;8.130;2023-02-02T06:11:15;100578.25;;;3.23;62.83
55317;BME280;41178;48.956;8.130;2023-02-02T06:16:17;100629.75;;;4.66;61.37
55317;BME280;41178;48.956;8.130;2023-02-02T06:21:19;100637.84;;;4.53;61.38
55317;BME280;41178;48.956;8.130;2023-02-02T06:26:24;100619.69;;;3.58;62.80
55317;BME280;41178;48.956;8.130;2023-02-02T06:31:26;100632.22;;;4.79;60.99
55317;BME280;41178;48.956;8.130;2023-02-02T06:36:28;100621.84;;;3.76;62.96
55317;BME280;41178;48.956;8.130;2023-02-02T06:41:30;100627.38;;;4.40;61.35
55317;BME280;41178;48.956;8.130;2023-02-02T06:46:32;100639.53;;;4.54;61.73
55317;BME280;41178;48.956;8.130;2023-02-02T06:51:34;100610.66;;;3.95;61.89
55317;BME280;41178;48.956;8.130;2023-02-02T06:56:35;100618.41;;;4.64;61.46
55317;BME280;41178;48.956;8.130;2023-02-02T07:01:37;100599.47;;;4.69;61.06
55317;BME280;41178;48.956;8.130;2023-02-02T07:06:39;100603.50;;;4.52;61.32
55317;BME280;41178;48.956;8.130;2023-02-02T07:11:40;100578.63;;;4.20;61.77
55317;BME280;41178;48.956;8.130;2023-02-02T07:16:45;100585.25;;;4.37;61.51
55317;BME280;41178;48.956;8.130;2023-02-02T07:21:47;100582.94;;;4.44;60.97
55317;BME280;41178;48.956;8.130;2023-02-02T07:26:48;100591.75;;;4.33;60.67
55317;BME280;41178;48.956;8.130;2023-02-02T07:31:50;100616.16;;;4.92;60.36
55317;BME280;41178;48.956;8.130;2023-02-02T07:36:54;100641.75;;;5.14;59.61
55317;BME280;41178;48.956;8.130;2023-02-02T07:41:56;100641.88;;;5.12;59.23
55317;BME280;41178;48.956;8.130;2023-02-02T07:46:58;100632.47;;;4.76;60.24
55317;BME280;41178;48.956;8.130;2023-02-02T07:51:59;100618.47;;;4.42;61.12
55317;BME280;41178;48.956;8.130;2023-02-02T07:57:01;100634.81;;;5.02;59.58
55317;BME280;41178;48.956;8.130;2023-02-02T08:02:03;100631.91;;;5.05;59.64
55317;BME280;41178;48.956;8.130;2023-02-02T08:07:04;100636.22;;;4.73;60.21
55317;BME280;41178;48.956;8.130;2023-02-02T08:12:06;100689.06;;;5.30;59.19
55317;BME280;41178;48.956;8.130;2023-02-02T08:17:08;100734.66;;;5.67;57.96
55317;BME280;41178;48.956;8.130;2023-02-02T08:22:09;100748.91;;;5.66;58.79
55317;BME280;41178;48.956;8.130;2023-02-02T08:27:11;100790.22;;;6.22;57.44
55317;BME280;41178;48.956;8.130;2023-02-02T08:32:13;100744.78;;;5.30;58.61
55317;BME280;41178;48.956;8.130;2023-02-02T08:37:15;100745.78;;;5.29;58.86
55317;BME280;41178;48.956;8.130;2023-02-02T08:42:17;100785.59;;;5.73;58.02
55317;BME280;41178;48.956;8.130;2023-02-02T08:47:18;100769.44;;;5.85;58.52
55317;BME280;41178;48.956;8.130;2023-02-02T08:52:20;100753.78;;;5.18;59.73
55317;BME280;41178;48.956;8.130;2023-02-02T08:57:23;100801.38;;;6.37;57.65
55317;BME280;41178;48.956;8.130;2023-02-02T09:02:25;100799.00;;;5.71;57.95
55317;BME280;41178;48.956;8.130;2023-02-02T09:07:27;100787.13;;;5.75;58.56
55317;BME280;41178;48.956;8.130;2023-02-02T09:12:29;100808.00;;;6.01;57.89
55317;BME280;41178;48.956;8.130;2023-02-02T09:17:30;100742.47;;;5.04;59.37
55317;BME280;41178;48.956;8.130;2023-02-02T09:22:32;100755.63;;;5.06;58.87
55317;BME280;41178;48.956;8.130;2023-02-02T09:27:37;100790.44;;;5.88;58.24
55317;BME280;41178;48.956;8.130;2023-02-02T09:32:41;100766.59;;;5.45;59.26
55317;BME280;41178;48.956;8.130;2023-02-02T09:37:43;100806.13;;;5.92;58.68
55317;BME280;41178;48.956;8.130;2023-02-02T09:43:07;100833.41;;;6.67;56.64
55317;BME280;41178;48.956;8.130;2023-02-02T09:48:45;100801.53;;;5.73;58.69
55317;BME280;41178;48.956;8.130;2023-02-02T09:54:04;100822.44;;;5.87;57.02
55317;BME280;41178;48.956;8.130;2023-02-02T09:59:14;100830.81;;;6.46;56.73
55317;BME280;41178;48.956;8.130;2023-02-02T10:04:28;100809.06;;;6.10;57.26
55317;BME280;41178;48.956;8.130;2023-02-02T10:09:46;100792.00;;;6.12;57.94
55317;BME280;41178;48.956;8.130;2023-02-02T10:15:01;100821.41;;;6.41;57.78
55317;BME280;41178;48.956;8.130;2023-02-02T10:25:56;100806.97;;;5.92;58.24
55317;BME280;41178;48.956;8.130;2023-02-02T10:31:00;100815.38;;;5.97;57.97
55317;BME280;41178;48.956;8.130;2023-02-02T10:46:31;100826.22;;;6.05;58.00
55317;BME280;41178;48.956;8.130;2023-02-02T10:51:34;100832.44;;;6.37;57.87
55317;BME280;41178;48.956;8.130;2023-02-02T10:56:42;100793.88;;;6.00;58.50
55317;BME280;41178;48.956;8.130;2023-02-02T11:06:25;100800.88;;;4.48;62.35
55317;BME280;41178;48.956;8.130;2023-02-02T11:11:49;100788.22;;;4.85;61.63
55317;BME280;41178;48.956;8.130;2023-02-02T11:17:01;100790.28;;;4.82;62.08
55317;BME280;41178;48.956;8.130;2023-02-02T11:22:03;100782.31;;;4.59;61.61
55317;BME280;41178;48.956;8.130;2023-02-02T11:32:32;100780.78;;;5.11;60.29
55317;BME280;41178;48.956;8.130;2023-02-02T11:37:36;100799.72;;;5.18;60.39
55317;BME280;41178;48.956;8.130;2023-02-02T11:42:44;100780.59;;;4.92;60.46
55317;BME280;41178;48.956;8.130;2023-02-02T11:47:49;100802.09;;;5.76;59.57
55317;BME280;41178;48.956;8.130;2023-02-02T11:52:52;100786.59;;;5.17;59.58
55317;BME280;41178;48.956;8.130;2023-02-02T11:58:25;100774.94;;;4.74;60.37
55317;BME280;41178;48.956;8.130;2023-02-02T12:03:34;100783.50;;;5.44;58.85
55317;BME280;41178;48.956;8.130;2023-02-02T12:08:36;100800.47;;;5.52;58.79
55317;BME280;41178;48.956;8.130;2023-02-02T12:13:52;100772.34;;;4.63;60.20
55317;BME280;41178;48.956;8.130;2023-02-02T12:24:33;100831.69;;;6.25;57.90
55317;BME280;41178;48.956;8.130;2023-02-02T12:46:11;100822.06;;;5.92;58.68
55317;BME280;41178;48.956;8.130;2023-02-02T13:02:35;100859.50;;;6.94;56.93
55317;BME280;41178;48.956;8.130;2023-02-02T13:07:43;100794.09;;;5.87;58.23
55317;BME280;41178;48.956;8.130;2023-02-02T13:13:03;100830.06;;;6.65;57.30
55317;BME280;41178;48.956;8.130;2023-02-02T13:18:37;100837.97;;;6.76;57.01
55317;BME280;41178;48.956;8.130;2023-02-02T13:23:48;100823.13;;;6.21;57.73
55317;BME280;41178;48.956;8.130;2023-02-02T13:34:17;100886.53;;;6.99;56.39
55317;BME280;41178;48.956;8.130;2023-02-02T13:39:26;100836.91;;;6.15;57.13
55317;BME280;41178;48.956;8.130;2023-02-02T13:44:37;100856.25;;;6.38;56.97
55317;BME280;41178;48.956;8.130;2023-02-02T13:49:47;100858.44;;;6.33;56.88
55317;BME280;41178;48.956;8.130;2023-02-02T13:55:22;100833.28;;;5.95;56.76
55317;BME280;41178;48.956;8.130;2023-02-02T14:00:36;100877.81;;;6.87;55.74
55317;BME280;41178;48.956;8.130;2023-02-02T14:05:40;100886.16;;;6.61;55.21
55317;BME280;41178;48.956;8.130;2023-02-02T14:10:54;100861.09;;;6.33;55.98
55317;BME280;41178;48.956;8.130;2023-02-02T14:15:59;100879.59;;;6.77;55.35
55317;BME280;41178;48.956;8.130;2023-02-02T14:21:02;100884.00;;;6.46;55.09
55317;BME280;41178;48.956;8.130;2023-02-02T14:26:07;100892.28;;;6.52;55.15
55317;BME280;41178;48.956;8.130;2023-02-02T14:31:26;100874.19;;;6.25;55.33
55317;BME280;41178;48.956;8.130;2023-02-02T14:36:30;100907.84;;;6.78;55.17
55317;BME280;41178;48.956;8.130;2023-02-02T14:41:55;100860.53;;;5.76;56.15
55317;BME280;41178;48.956;8.130;2023-02-02T14:47:41;100908.31;;;6.20;54.60
55317;BME280;41178;48.956;8.130;2023-02-02T14:53:03;100929.25;;;6.55;55.14
55317;BME280;41178;48.956;8.130;2023-02-02T14:58:06;100890.31;;;5.91;56.28
55317;BME280;41178;48.956;8.130;2023-02-02T15:08:35;100910.22;;;5.85;56.06
55317;BME280;41178;48.956;8.130;2023-02-02T15:13:38;100929.38;;;6.33;55.58
55317;BME280;41178;48.956;8.130;2023-02-02T15:18:43;100945.84;;;6.48;54.70
55317;BME280;41178;48.956;8.130;2023-02-02T15:23:46;100952.34;;;6.55;54.53
55317;BME280;41178;48.956;8.130;2023-02-02T15:28:56;100965.56;;;6.66;54.85
55317;BME280;41178;48.956;8.130;2023-02-02T15:34:24;100922.00;;;5.60;56.85
55317;BME280;41178;48.956;8.130;2023-02-02T15:39:31;100967.28;;;6.67;56.40
55317;BME280;41178;48.956;8.130;2023-02-02T15:44:36;100941.25;;;6.29;57.81
55317;BME280;41178;48.956;8.130;2023-02-02T15:49:38;100950.91;;;6.30;57.05
55317;BME280;41178;48.956;8.130;2023-02-02T15:54:54;100932.81;;;5.91;57.90
55317;BME280;41178;48.956;8.130;2023-02-02T15:59:57;100960.31;;;6.34;57.26
55317;BME280;41178;48.956;8.130;2023-02-02T16:04:59;100950.50;;;6.34;57.03
55317;BME280;41178;48.956;8.130;2023-02-02T16:10:05;100948.50;;;5.94;57.20
55317;BME280;41178;48.956;8.130;2023-02-02T16:15:18;100952.75;;;5.85;57.33
55317;BME280;41178;48.956;8.130;2023-02-02T16:20:20;100999.03;;;6.48;55.83
55317;BME280;41178;48.956;8.130;2023-02-02T16:25:22;101005.69;;;6.74;56.22
55317;BME280;41178;48.956;8.130;2023-02-02T16:30:35;101013.56;;;6.43;56.45
55317;BME280;41178;48.956;8.130;2023-02-02T16:35:38;101030.81;;;6.81;55.85
55317;BME280;41178;48.956;8.130;2023-02-02T16:40:41;101062.53;;;7.06;54.96
55317;BME280;41178;48.956;8.130;2023-02-02T16:46:04;101063.63;;;6.71;55.21
55317;BME280;41178;48.956;8.130;2023-02-02T16:56:25;101089.38;;;7.03;54.23
55317;BME280;41178;48.956;8.130;2023-02-02T17:01:50;101087.81;;;6.79;54.38
55317;BME280;41178;48.956;8.130;2023-02-02T17:06:54;101104.69;;;6.89;54.07
55317;BME280;41178;48.956;8.130;2023-02-02T17:12:04;101118.22;;;6.97;53.49
55317;BME280;41178;48.956;8.130;2023-02-02T17:17:12;101099.44;;;6.23;55.06
55317;BME280;41178;48.956;8.130;2023-02-02T17:22:16;101104.47;;;6.37;54.56
55317;BME280;41178;48.956;8.130;2023-02-02T17:27:27;101096.31;;;6.18;55.30
55317;BME280;41178;48.956;8.130;2023-02-02T17:32:29;101112.94;;;6.86;54.08
55317;BME280;41178;48.956;8.130;2023-02-02T17:37:31;101079.53;;;6.06;55.65
55317;BME280;41178;48.956;8.130;2023-02-02T17:42:33;101130.69;;;7.18;54.18
55317;BME280;41178;48.956;8.130;2023-02-02T17:47:35;101154.03;;;7.78;53.13
55317;BME280;41178;48.956;8.130;2023-02-02T17:52:38;101143.94;;;7.29;53.80
55317;BME280;41178;48.956;8.130;2023-02-02T17:57:39;101145.69;;;7.40;53.47
55317;BME280;41178;48.956;8.130;2023-02-02T18:02:42;101168.94;;;7.80;52.45
55317;BME280;41178;48.956;8.130;2023-02-02T18:07:44;101143.09;;;7.29;53.16
55317;BME280;41178;48.956;8.130;2023-02-02T18:12:45;101144.13;;;7.59;52.75
55317;BME280;41178;48.956;8.130;2023-02-02T18:17:47;101154.38;;;7.84;52.89
55317;BME280;41178;48.956;8.130;2023-02-02T18:22:50;101127.94;;;6.87;53.75
55317;BME280;41178;48.956;8.130;2023-02-02T18:27:52;101134.25;;;7.07;53.70
55317;BME280;41178;48.956;8.130;2023-02-02T18:32:58;101138.34;;;7.32;53.86
55317;BME280;41178;48.956;8.130;2023-02-02T18:38:00;101130.63;;;6.76;54.58
55317;BME280;41178;48.956;8.130;2023-02-02T18:43:01;101112.94;;;6.75;54.99
55317;BME280;41178;48.956;8.130;2023-02-02T18:48:03;101162.00;;;7.68;53.17
55317;BME280;41178;48.956;8.130;2023-02-02T18:53:05;101117.16;;;7.10;53.71
55317;BME280;41178;48.956;8.130;2023-02-02T18:58:07;101121.78;;;7.29;54.04
55317;BME280;41178;48.956;8.130;2023-02-02T19:03:11;101101.00;;;6.80;54.96
55317;BME280;41178;48.956;8.130;2023-02-02T19:08:13;101104.63;;;6.68;54.84
55317;BME280;41178;48.956;8.130;2023-02-02T19:13:18;101089.09;;;6.52;55.33
55317;BME280;41178;48.956;8.130;2023-02-02T19:18:23;101076.59;;;6.09;55.04
55317;BME280;41178;48.956;8.130;2023-02-02T19:23:28;101073.69;;;6.67;54.33
55317;BME280;41178;48.956;8.130;2023-02-02T19:28:32;101063.88;;;6.35;55.40
55317;BME280;41178;48.956;8.130;2023-02-02T19:33:40;101111.50;;;7.66;53.66
55317;BME280;41178;48.956;8.130;2023-02-02T19:38:43;101114.94;;;7.57;53.24
55317;BME280;41178;48.956;8.130;2023-02-02T19:43:46;101105.75;;;7.40;53.12
55317;BME280;41178;48.956;8.130;2023-02-02T19:48:58;101074.00;;;6.74;55.13
55317;BME280;41178;48.956;8.130;2023-02-02T19:54:04;101098.47;;;7.21;54.04
55317;BME280;41178;48.956;8.130;2023-02-02T19:59:17;101093.91;;;6.58;54.77
55317;BME280;41178;48.956;8.130;2023-02-02T20:04:20;101113.88;;;7.17;53.19
55317;BME280;41178;48.956;8.130;2023-02-02T20:09:22;101069.84;;;6.16;55.18
55317;BME280;41178;48.956;8.130;2023-02-02T20:14:27;101099.91;;;7.04;53.29
55317;BME280;41178;48.956;8.130;2023-02-02T20:19:32;101093.22;;;6.89;53.54
55317;BME280;41178;48.956;8.130;2023-02-02T20:24:38;101090.88;;;6.95;53.54
55317;BME280;41178;48.956;8.130;2023-02-02T20:29:45;101077.97;;;6.91;53.56
55317;BME280;41178;48.956;8.130;2023-02-02T20:34:48;101098.09;;;7.05;53.43
55317;BME280;41178;48.956;8.130;2023-02-02T20:40:05;101098.75;;;7.18;52.76
55317;BME280;41178;48.956;8.130;2023-02-02T20:45:08;101123.00;;;7.46;52.21
55317;BME280;41178;48.956;8.130;2023-02-02T20:50:11;101102.56;;;7.46;52.32
55317;BME280;41178;48.956;8.130;2023-02-02T20:55:13;101083.06;;;6.83;53.02
55317;BME280;41178;48.956;8.130;2023-02-02T21:00:16;101120.09;;;7.28;51.97
55317;BME280;41178;48.956;8.130;2023-02-02T21:05:18;101096.84;;;6.44;52.46
55317;BME280;41178;48.956;8.130;2023-02-02T21:10:22;101129.91;;;7.06;51.96
55317;BME280;41178;48.956;8.130;2023-02-02T21:15:25;101165.63;;;7.88;51.04
55317;BME280;41178;48.956;8.130;2023-02-02T21:20:27;101121.84;;;6.96;51.86
55317;BME280;41178;48.956;8.130;2023-02-02T21:25:29;101121.50;;;6.90;51.91
55317;BME280;41178;48.956;8.130;2023-02-02T21:30:31;101142.97;;;7.51;51.20
55317;BME280;41178;48.956;8.130;2023-02-02T21:35:34;101170.03;;;7.99;50.53
55317;BME280;41178;48.956;8.130;2023-02-02T21:40:35;101136.19;;;7.68;51.15
55317;BME280;41178;48.956;8.130;2023-02-02T21:45:37;101129.41;;;7.12;50.93
55317;BME280;41178;48.956;8.130;2023-02-02T21:50:42;101114.50;;;6.89;51.21
55317;BME280;41178;48.956;8.130;2023-02-02T21:55:57;101108.72;;;6.84;51.67
55317;BME280;41178;48.956;8.130;2023-02-02T22:01:32;101123.47;;;7.09;51.65
55317;BME280;41178;48.956;8.130;2023-02-02T22:46:04;101129.22;;;8.08;51.16
55317;BME280;41178;48.956;8.130;2023-02-02T22:51:06;101082.47;;;7.42;52.11
55317;BME280;41178;48.956;8.130;2023-02-02T22:56:08;101070.88;;;7.01;52.58
55317;BME280;41178;48.956;8.130;2023-02-02T23:01:10;101094.78;;;7.64;52.01
55317;BME280;41178;48.956;8.130;2023-02-02T23:06:14;101085.38;;;7.29;52.27
55317;BME280;41178;48.956;8.130;2023-02-02T23:11:16;101099.22;;;7.54;51.59
55317;BME280;41178;48.956;8.130;2023-02-02T23:16:17;101081.34;;;7.14;52.48
55317;BME280;41178;48.956;8.130;2023-02-02T23:21:19;101122.09;;;8.08;51.35
55317;BME280;41178;48.956;8.130;2023-02-02T23:26:22;101094.25;;;7.18;51.95
55317;BME280;41178;48.956;8.130;2023-02-02T23:31:24;101134.25;;;8.01;51.25
55317;BME280;41178;48.956;8.130;2023-02-02T23:36:26;101112.22;;;7.47;52.43
55317;BME280;41178;48.956;8.130;2023-02-02T23:41:28;101147.25;;;7.95;51.03
55317;BME280;41178;48.956;8.130;2023-02-02T23:46:30;101132.59;;;7.79;51.96
55317;BME280;41178;48.956;8.130;2023-02-02T23:51:32;101136.25;;;7.78;51.17
55317;BME280;41178;48.956;8.130;2023-02-02T23:56:34;101107.16;;;6.81;52.71
